Archival Weather

Snohomish County (Paine Fld)

Everett, Washington (KPAE)

Report from: Wednesday, November 15, 2023 4:53 AM PST
Current time: Friday, June 21, 2024 1:39 AM PDT

Current weather – Weather history – Daily summaries
Weather forecast

Temperature2.2°C (36.0°F)
Dew point0.0°C (32.0°F)
Winds Calm
Visibility10 mi. (16.1 km)
Clouds Sky clear
Altimeter29.94 in.Hg (1014 mB)
Relative humidity85 %
Density altitude-1,504 ft. (-458 m)
Sea-level pressure101.4 kPa (1014 mB, 29.96 in.Hg)
Remarks Fully automated report
Automated weather observing station with precipitation discriminator
Flight conditions Visual Meteorological Conditions
Raw dataKPAE 151253Z AUTO 00000KT 10SM CLR 02/00 A2994 RMK AO2 SLP144 T00220000
An error has occurred. This application may no longer respond until reloaded. Reload 🗙